sensor_id;sensor_type;location;lat;lon;timestamp;temperature;humidity
23475;DHT22;11910;52.086;21.066;2024-02-23T00:02:15;9.20;99.90
23475;DHT22;11910;52.086;21.066;2024-02-23T00:04:41;9.20;99.90
23475;DHT22;11910;52.086;21.066;2024-02-23T00:07:07;9.20;99.90
23475;DHT22;11910;52.086;21.066;2024-02-23T00:09:34;9.20;99.90
23475;DHT22;11910;52.086;21.066;2024-02-23T00:12:00;9.20;99.90
23475;DHT22;11910;52.086;21.066;2024-02-23T00:14:26;9.30;99.90
23475;DHT22;11910;52.086;21.066;2024-02-23T00:16:51;9.20;99.90
23475;DHT22;11910;52.086;21.066;2024-02-23T00:19:17;9.20;99.90
23475;DHT22;11910;52.086;21.066;2024-02-23T00:21:45;9.20;99.90
23475;DHT22;11910;52.086;21.066;2024-02-23T00:24:15;9.20;99.90
23475;DHT22;11910;52.086;21.066;2024-02-23T00:26:42;9.20;99.90
23475;DHT22;11910;52.086;21.066;2024-02-23T00:29:07;9.20;99.90
23475;DHT22;11910;52.086;21.066;2024-02-23T00:31:34;9.20;99.90
23475;DHT22;11910;52.086;21.066;2024-02-23T00:34:01;9.20;99.90
23475;DHT22;11910;52.086;21.066;2024-02-23T00:36:26;9.20;99.90
23475;DHT22;11910;52.086;21.066;2024-02-23T00:38:52;9.20;99.90
23475;DHT22;11910;52.086;21.066;2024-02-23T00:41:18;9.20;99.90
23475;DHT22;11910;52.086;21.066;2024-02-23T00:43:43;9.20;99.90
23475;DHT22;11910;52.086;21.066;2024-02-23T00:46:09;9.10;99.90
23475;DHT22;11910;52.086;21.066;2024-02-23T00:48:35;9.10;99.90
23475;DHT22;11910;52.086;21.066;2024-02-23T00:51:02;9.10;99.90
23475;DHT22;11910;52.086;21.066;2024-02-23T00:53:30;9.10;99.90
23475;DHT22;11910;52.086;21.066;2024-02-23T00:55:55;9.10;99.90
23475;DHT22;11910;52.086;21.066;2024-02-23T00:58:22;9.10;99.90
23475;DHT22;11910;52.086;21.066;2024-02-23T01:00:48;9.10;99.90
23475;DHT22;11910;52.086;21.066;2024-02-23T01:03:13;9.10;99.90
23475;DHT22;11910;52.086;21.066;2024-02-23T01:05:39;9.10;99.90
23475;DHT22;11910;52.086;21.066;2024-02-23T01:08:05;9.10;99.90
23475;DHT22;11910;52.086;21.066;2024-02-23T01:10:31;9.10;99.90
23475;DHT22;11910;52.086;21.066;2024-02-23T01:12:56;9.10;99.90
23475;DHT22;11910;52.086;21.066;2024-02-23T01:15:22;9.00;99.90
23475;DHT22;11910;52.086;21.066;2024-02-23T01:17:48;9.00;99.90
23475;DHT22;11910;52.086;21.066;2024-02-23T01:20:14;9.00;99.90
23475;DHT22;11910;52.086;21.066;2024-02-23T01:22:39;9.00;99.90
23475;DHT22;11910;52.086;21.066;2024-02-23T01:25:05;9.00;99.90
23475;DHT22;11910;52.086;21.066;2024-02-23T01:27:31;9.10;99.90
23475;DHT22;11910;52.086;21.066;2024-02-23T01:29:57;9.10;99.90
23475;DHT22;11910;52.086;21.066;2024-02-23T01:32:22;9.00;99.90
23475;DHT22;11910;52.086;21.066;2024-02-23T01:34:48;9.00;99.90
23475;DHT22;11910;52.086;21.066;2024-02-23T01:37:13;9.10;99.90
23475;DHT22;11910;52.086;21.066;2024-02-23T01:39:40;9.10;99.90
23475;DHT22;11910;52.086;21.066;2024-02-23T01:42:05;9.10;99.90
23475;DHT22;11910;52.086;21.066;2024-02-23T01:44:31;9.10;99.90
23475;DHT22;11910;52.086;21.066;2024-02-23T01:46:57;9.10;99.90
23475;DHT22;11910;52.086;21.066;2024-02-23T01:49:22;9.10;99.90
23475;DHT22;11910;52.086;21.066;2024-02-23T01:51:57;9.10;99.90
23475;DHT22;11910;52.086;21.066;2024-02-23T01:54:24;9.10;99.90
23475;DHT22;11910;52.086;21.066;2024-02-23T01:56:51;9.10;99.90
23475;DHT22;11910;52.086;21.066;2024-02-23T01:59:16;9.20;99.90
23475;DHT22;11910;52.086;21.066;2024-02-23T02:01:45;9.20;99.90
23475;DHT22;11910;52.086;21.066;2024-02-23T02:04:11;9.20;99.90
23475;DHT22;11910;52.086;21.066;2024-02-23T02:06:37;9.20;99.90
23475;DHT22;11910;52.086;21.066;2024-02-23T02:09:02;9.20;99.90
23475;DHT22;11910;52.086;21.066;2024-02-23T02:11:28;9.30;99.90
23475;DHT22;11910;52.086;21.066;2024-02-23T02:13:54;9.30;99.90
23475;DHT22;11910;52.086;21.066;2024-02-23T02:16:19;9.30;99.90
23475;DHT22;11910;52.086;21.066;2024-02-23T02:18:45;9.30;99.90
23475;DHT22;11910;52.086;21.066;2024-02-23T02:21:11;9.30;99.90
23475;DHT22;11910;52.086;21.066;2024-02-23T02:23:37;9.30;99.90
23475;DHT22;11910;52.086;21.066;2024-02-23T02:26:03;9.30;99.90
23475;DHT22;11910;52.086;21.066;2024-02-23T02:28:29;9.40;99.90
23475;DHT22;11910;52.086;21.066;2024-02-23T02:30:55;9.40;99.90
23475;DHT22;11910;52.086;21.066;2024-02-23T02:33:22;9.40;99.90
23475;DHT22;11910;52.086;21.066;2024-02-23T02:35:48;9.40;99.90
23475;DHT22;11910;52.086;21.066;2024-02-23T02:38:15;9.40;99.90
23475;DHT22;11910;52.086;21.066;2024-02-23T02:40:40;9.40;99.90
23475;DHT22;11910;52.086;21.066;2024-02-23T02:43:06;9.40;99.90
23475;DHT22;11910;52.086;21.066;2024-02-23T02:45:32;9.50;99.90
23475;DHT22;11910;52.086;21.066;2024-02-23T02:47:59;9.40;99.90
23475;DHT22;11910;52.086;21.066;2024-02-23T02:50:25;9.40;99.90
23475;DHT22;11910;52.086;21.066;2024-02-23T02:52:50;9.40;99.90
23475;DHT22;11910;52.086;21.066;2024-02-23T02:55:16;9.50;99.90
23475;DHT22;11910;52.086;21.066;2024-02-23T02:57:44;9.50;99.90
23475;DHT22;11910;52.086;21.066;2024-02-23T03:00:10;9.50;99.90
23475;DHT22;11910;52.086;21.066;2024-02-23T03:02:36;9.50;99.90
23475;DHT22;11910;52.086;21.066;2024-02-23T03:05:01;9.50;99.90
23475;DHT22;11910;52.086;21.066;2024-02-23T03:07:27;9.60;99.90
23475;DHT22;11910;52.086;21.066;2024-02-23T03:09:53;9.60;99.90
23475;DHT22;11910;52.086;21.066;2024-02-23T03:12:19;9.60;99.90
23475;DHT22;11910;52.086;21.066;2024-02-23T03:14:45;9.60;99.90
23475;DHT22;11910;52.086;21.066;2024-02-23T03:17:10;9.60;99.90
23475;DHT22;11910;52.086;21.066;2024-02-23T03:19:36;9.50;99.90
23475;DHT22;11910;52.086;21.066;2024-02-23T03:22:02;9.40;99.90
23475;DHT22;11910;52.086;21.066;2024-02-23T03:24:28;9.20;99.90
23475;DHT22;11910;52.086;21.066;2024-02-23T03:26:54;9.20;99.90
23475;DHT22;11910;52.086;21.066;2024-02-23T03:29:20;9.10;99.90
23475;DHT22;11910;52.086;21.066;2024-02-23T03:31:47;9.00;99.90
23475;DHT22;11910;52.086;21.066;2024-02-23T03:34:13;9.00;99.90
23475;DHT22;11910;52.086;21.066;2024-02-23T03:36:38;8.90;99.90
23475;DHT22;11910;52.086;21.066;2024-02-23T03:39:04;8.90;99.90
23475;DHT22;11910;52.086;21.066;2024-02-23T03:41:30;8.80;99.90
23475;DHT22;11910;52.086;21.066;2024-02-23T03:43:55;8.80;99.90
23475;DHT22;11910;52.086;21.066;2024-02-23T03:46:21;8.70;99.90
23475;DHT22;11910;52.086;21.066;2024-02-23T03:48:47;8.70;99.90
23475;DHT22;11910;52.086;21.066;2024-02-23T03:51:13;8.60;99.90
23475;DHT22;11910;52.086;21.066;2024-02-23T03:53:38;8.50;99.90
23475;DHT22;11910;52.086;21.066;2024-02-23T03:56:04;8.50;99.90
23475;DHT22;11910;52.086;21.066;2024-02-23T03:58:30;8.50;99.90
23475;DHT22;11910;52.086;21.066;2024-02-23T04:00:55;8.50;99.90
23475;DHT22;11910;52.086;21.066;2024-02-23T04:03:21;8.40;99.90
23475;DHT22;11910;52.086;21.066;2024-02-23T04:05:46;8.40;99.90
23475;DHT22;11910;52.086;21.066;2024-02-23T04:08:12;8.40;99.90
23475;DHT22;11910;52.086;21.066;2024-02-23T04:10:38;8.40;99.90
23475;DHT22;11910;52.086;21.066;2024-02-23T04:13:03;8.40;99.90
23475;DHT22;11910;52.086;21.066;2024-02-23T04:15:29;8.40;99.90
23475;DHT22;11910;52.086;21.066;2024-02-23T04:17:55;8.40;99.90
23475;DHT22;11910;52.086;21.066;2024-02-23T04:20:20;8.40;99.90
23475;DHT22;11910;52.086;21.066;2024-02-23T04:22:46;8.50;99.90
23475;DHT22;11910;52.086;21.066;2024-02-23T04:25:12;8.40;99.90
23475;DHT22;11910;52.086;21.066;2024-02-23T04:27:37;8.40;99.90
23475;DHT22;11910;52.086;21.066;2024-02-23T04:30:04;8.40;99.90
23475;DHT22;11910;52.086;21.066;2024-02-23T04:32:30;8.40;99.90
23475;DHT22;11910;52.086;21.066;2024-02-23T04:34:56;8.40;99.90
23475;DHT22;11910;52.086;21.066;2024-02-23T04:37:21;8.40;99.90
23475;DHT22;11910;52.086;21.066;2024-02-23T04:39:47;8.40;99.90
23475;DHT22;11910;52.086;21.066;2024-02-23T04:42:13;8.40;99.90
23475;DHT22;11910;52.086;21.066;2024-02-23T04:44:40;8.40;99.90
23475;DHT22;11910;52.086;21.066;2024-02-23T04:47:06;8.40;99.90
23475;DHT22;11910;52.086;21.066;2024-02-23T04:49:32;8.40;99.90
23475;DHT22;11910;52.086;21.066;2024-02-23T04:51:58;8.40;99.90
23475;DHT22;11910;52.086;21.066;2024-02-23T04:54:23;8.40;99.90
23475;DHT22;11910;52.086;21.066;2024-02-23T04:56:49;8.40;99.90
23475;DHT22;11910;52.086;21.066;2024-02-23T04:59:15;8.30;99.90
23475;DHT22;11910;52.086;21.066;2024-02-23T05:01:41;8.20;99.90
23475;DHT22;11910;52.086;21.066;2024-02-23T05:04:08;8.10;99.90
23475;DHT22;11910;52.086;21.066;2024-02-23T05:06:33;8.00;99.90
23475;DHT22;11910;52.086;21.066;2024-02-23T05:08:59;8.00;99.90
23475;DHT22;11910;52.086;21.066;2024-02-23T05:11:25;8.00;99.90
23475;DHT22;11910;52.086;21.066;2024-02-23T05:13:50;8.00;99.90
23475;DHT22;11910;52.086;21.066;2024-02-23T05:16:16;8.10;99.90
23475;DHT22;11910;52.086;21.066;2024-02-23T05:18:43;8.10;99.90
23475;DHT22;11910;52.086;21.066;2024-02-23T05:21:09;8.10;99.90
23475;DHT22;11910;52.086;21.066;2024-02-23T05:23:35;8.10;99.90
23475;DHT22;11910;52.086;21.066;2024-02-23T05:26:01;8.10;99.90
23475;DHT22;11910;52.086;21.066;2024-02-23T05:28:27;8.10;99.90
23475;DHT22;11910;52.086;21.066;2024-02-23T05:30:54;8.10;99.90
23475;DHT22;11910;52.086;21.066;2024-02-23T05:33:19;8.10;99.90
23475;DHT22;11910;52.086;21.066;2024-02-23T05:35:46;8.10;99.90
23475;DHT22;11910;52.086;21.066;2024-02-23T05:38:14;8.10;99.90
23475;DHT22;11910;52.086;21.066;2024-02-23T05:40:40;8.10;99.90
23475;DHT22;11910;52.086;21.066;2024-02-23T05:43:05;8.10;99.90
23475;DHT22;11910;52.086;21.066;2024-02-23T05:45:31;8.10;99.90
23475;DHT22;11910;52.086;21.066;2024-02-23T05:47:57;8.10;99.90
23475;DHT22;11910;52.086;21.066;2024-02-23T05:50:23;8.10;99.90
23475;DHT22;11910;52.086;21.066;2024-02-23T05:52:49;8.10;99.90
23475;DHT22;11910;52.086;21.066;2024-02-23T05:55:14;8.10;99.90
23475;DHT22;11910;52.086;21.066;2024-02-23T05:57:40;8.10;99.90
23475;DHT22;11910;52.086;21.066;2024-02-23T06:00:06;8.10;99.90
23475;DHT22;11910;52.086;21.066;2024-02-23T06:02:33;8.10;99.90
23475;DHT22;11910;52.086;21.066;2024-02-23T06:04:58;8.10;99.90
23475;DHT22;11910;52.086;21.066;2024-02-23T06:07:24;8.10;99.90
23475;DHT22;11910;52.086;21.066;2024-02-23T06:09:57;8.10;99.90
23475;DHT22;11910;52.086;21.066;2024-02-23T06:12:23;8.10;99.90
23475;DHT22;11910;52.086;21.066;2024-02-23T06:14:50;8.20;99.90
23475;DHT22;11910;52.086;21.066;2024-02-23T06:17:16;8.20;99.90
23475;DHT22;11910;52.086;21.066;2024-02-23T06:19:42;8.20;99.90
23475;DHT22;11910;52.086;21.066;2024-02-23T06:22:08;8.20;99.90
23475;DHT22;11910;52.086;21.066;2024-02-23T06:24:35;8.20;99.90
23475;DHT22;11910;52.086;21.066;2024-02-23T06:27:01;8.30;99.90
23475;DHT22;11910;52.086;21.066;2024-02-23T06:29:28;8.30;99.90
23475;DHT22;11910;52.086;21.066;2024-02-23T06:31:55;8.30;99.90
23475;DHT22;11910;52.086;21.066;2024-02-23T06:34:20;8.40;99.90
23475;DHT22;11910;52.086;21.066;2024-02-23T06:36:46;8.40;99.90
23475;DHT22;11910;52.086;21.066;2024-02-23T06:39:12;8.40;99.90
23475;DHT22;11910;52.086;21.066;2024-02-23T06:41:38;8.40;99.90
23475;DHT22;11910;52.086;21.066;2024-02-23T06:44:04;8.40;99.90
23475;DHT22;11910;52.086;21.066;2024-02-23T06:46:30;8.40;99.90
23475;DHT22;11910;52.086;21.066;2024-02-23T06:48:56;8.40;99.90
23475;DHT22;11910;52.086;21.066;2024-02-23T06:51:22;8.40;99.90
23475;DHT22;11910;52.086;21.066;2024-02-23T06:53:47;8.40;99.90
23475;DHT22;11910;52.086;21.066;2024-02-23T06:56:13;8.40;99.90
23475;DHT22;11910;52.086;21.066;2024-02-23T06:58:39;8.40;99.90
23475;DHT22;11910;52.086;21.066;2024-02-23T07:01:04;8.40;99.90
23475;DHT22;11910;52.086;21.066;2024-02-23T07:03:35;8.40;99.90
23475;DHT22;11910;52.086;21.066;2024-02-23T07:18:11;8.40;99.90
23475;DHT22;11910;52.086;21.066;2024-02-23T07:20:37;9.00;99.90
23475;DHT22;11910;52.086;21.066;2024-02-23T07:23:04;8.80;99.90
23475;DHT22;11910;52.086;21.066;2024-02-23T07:25:29;8.80;99.90
23475;DHT22;11910;52.086;21.066;2024-02-23T07:27:55;8.80;99.90
23475;DHT22;11910;52.086;21.066;2024-02-23T07:30:21;8.70;99.90
23475;DHT22;11910;52.086;21.066;2024-02-23T07:32:47;8.70;99.90
23475;DHT22;11910;52.086;21.066;2024-02-23T07:35:12;8.70;99.90
23475;DHT22;11910;52.086;21.066;2024-02-23T07:37:38;8.70;99.90
23475;DHT22;11910;52.086;21.066;2024-02-23T07:40:04;8.80;99.90
23475;DHT22;11910;52.086;21.066;2024-02-23T07:42:31;8.70;99.90
23475;DHT22;11910;52.086;21.066;2024-02-23T07:44:57;8.80;99.90
23475;DHT22;11910;52.086;21.066;2024-02-23T07:47:23;8.80;99.90
23475;DHT22;11910;52.086;21.066;2024-02-23T07:49:49;8.80;99.90
23475;DHT22;11910;52.086;21.066;2024-02-23T07:52:14;8.80;99.90
23475;DHT22;11910;52.086;21.066;2024-02-23T07:54:40;8.80;99.90
23475;DHT22;11910;52.086;21.066;2024-02-23T07:57:07;8.80;99.90
23475;DHT22;11910;52.086;21.066;2024-02-23T07:59:32;8.90;99.90
23475;DHT22;11910;52.086;21.066;2024-02-23T08:01:58;8.80;99.90
23475;DHT22;11910;52.086;21.066;2024-02-23T08:04:24;8.80;99.90
23475;DHT22;11910;52.086;21.066;2024-02-23T08:06:50;8.80;99.90
23475;DHT22;11910;52.086;21.066;2024-02-23T08:09:16;8.80;99.90
23475;DHT22;11910;52.086;21.066;2024-02-23T08:11:43;8.80;99.90
23475;DHT22;11910;52.086;21.066;2024-02-23T08:14:08;8.80;99.90
23475;DHT22;11910;52.086;21.066;2024-02-23T08:16:34;8.90;99.90
23475;DHT22;11910;52.086;21.066;2024-02-23T08:19:03;8.90;99.90
23475;DHT22;11910;52.086;21.066;2024-02-23T08:21:29;8.90;99.90
23475;DHT22;11910;52.086;21.066;2024-02-23T08:23:54;8.90;99.90
23475;DHT22;11910;52.086;21.066;2024-02-23T08:26:20;9.00;99.90
23475;DHT22;11910;52.086;21.066;2024-02-23T08:28:45;9.00;99.90
23475;DHT22;11910;52.086;21.066;2024-02-23T08:31:11;9.10;99.90
23475;DHT22;11910;52.086;21.066;2024-02-23T08:33:37;9.00;99.90
23475;DHT22;11910;52.086;21.066;2024-02-23T08:36:03;9.10;99.90
23475;DHT22;11910;52.086;21.066;2024-02-23T08:39:05;9.10;99.90
23475;DHT22;11910;52.086;21.066;2024-02-23T08:41:30;9.10;99.90
23475;DHT22;11910;52.086;21.066;2024-02-23T08:43:55;9.20;99.90
23475;DHT22;11910;52.086;21.066;2024-02-23T08:46:21;9.10;99.90
23475;DHT22;11910;52.086;21.066;2024-02-23T08:48:48;9.20;99.90
23475;DHT22;11910;52.086;21.066;2024-02-23T08:51:13;9.20;99.90
23475;DHT22;11910;52.086;21.066;2024-02-23T08:53:39;9.30;99.90
23475;DHT22;11910;52.086;21.066;2024-02-23T08:56:06;9.30;99.90
23475;DHT22;11910;52.086;21.066;2024-02-23T08:58:33;9.40;99.90
23475;DHT22;11910;52.086;21.066;2024-02-23T09:00:58;9.40;99.90
23475;DHT22;11910;52.086;21.066;2024-02-23T09:03:24;9.50;99.90
23475;DHT22;11910;52.086;21.066;2024-02-23T09:05:50;9.60;99.90
23475;DHT22;11910;52.086;21.066;2024-02-23T09:08:16;9.60;99.90
23475;DHT22;11910;52.086;21.066;2024-02-23T09:10:41;9.60;99.90
23475;DHT22;11910;52.086;21.066;2024-02-23T09:13:07;9.70;99.90
23475;DHT22;11910;52.086;21.066;2024-02-23T09:15:33;9.70;99.90
23475;DHT22;11910;52.086;21.066;2024-02-23T09:17:58;9.70;99.90
23475;DHT22;11910;52.086;21.066;2024-02-23T09:20:24;9.80;99.90
23475;DHT22;11910;52.086;21.066;2024-02-23T09:22:50;9.80;99.90
23475;DHT22;11910;52.086;21.066;2024-02-23T09:25:16;9.80;99.90
23475;DHT22;11910;52.086;21.066;2024-02-23T09:27:41;9.90;99.90
23475;DHT22;11910;52.086;21.066;2024-02-23T09:30:13;9.90;99.90
23475;DHT22;11910;52.086;21.066;2024-02-23T09:32:39;10.00;99.90
23475;DHT22;11910;52.086;21.066;2024-02-23T09:35:05;10.10;99.90
23475;DHT22;11910;52.086;21.066;2024-02-23T09:37:32;10.10;99.90
23475;DHT22;11910;52.086;21.066;2024-02-23T09:39:58;10.10;99.90
23475;DHT22;11910;52.086;21.066;2024-02-23T09:42:23;10.20;99.90
23475;DHT22;11910;52.086;21.066;2024-02-23T09:44:59;10.30;99.90
23475;DHT22;11910;52.086;21.066;2024-02-23T09:47:28;10.30;99.90
23475;DHT22;11910;52.086;21.066;2024-02-23T09:49:54;10.40;99.90
23475;DHT22;11910;52.086;21.066;2024-02-23T09:52:21;10.40;99.90
23475;DHT22;11910;52.086;21.066;2024-02-23T09:54:48;10.40;99.90
23475;DHT22;11910;52.086;21.066;2024-02-23T09:57:14;10.40;99.90
23475;DHT22;11910;52.086;21.066;2024-02-23T09:59:41;10.40;99.90
23475;DHT22;11910;52.086;21.066;2024-02-23T10:02:14;10.50;99.90
23475;DHT22;11910;52.086;21.066;2024-02-23T10:04:40;10.50;99.90
23475;DHT22;11910;52.086;21.066;2024-02-23T10:07:08;10.60;99.90
23475;DHT22;11910;52.086;21.066;2024-02-23T10:09:35;10.60;99.90
23475;DHT22;11910;52.086;21.066;2024-02-23T10:12:02;10.60;99.90
23475;DHT22;11910;52.086;21.066;2024-02-23T10:14:27;10.60;99.90
23475;DHT22;11910;52.086;21.066;2024-02-23T10:16:53;10.60;99.90
23475;DHT22;11910;52.086;21.066;2024-02-23T10:19:21;10.60;99.90
23475;DHT22;11910;52.086;21.066;2024-02-23T10:21:46;10.60;99.90
23475;DHT22;11910;52.086;21.066;2024-02-23T10:24:13;10.50;99.90
23475;DHT22;11910;52.086;21.066;2024-02-23T10:26:41;10.50;99.90
23475;DHT22;11910;52.086;21.066;2024-02-23T10:29:07;10.50;99.90
23475;DHT22;11910;52.086;21.066;2024-02-23T10:31:35;10.50;99.90
23475;DHT22;11910;52.086;21.066;2024-02-23T10:34:09;10.40;99.90
23475;DHT22;11910;52.086;21.066;2024-02-23T10:36:40;10.40;99.90
23475;DHT22;11910;52.086;21.066;2024-02-23T10:39:08;10.40;99.90
23475;DHT22;11910;52.086;21.066;2024-02-23T10:41:35;10.30;99.90
23475;DHT22;11910;52.086;21.066;2024-02-23T10:44:05;10.40;99.90
23475;DHT22;11910;52.086;21.066;2024-02-23T10:46:32;10.30;99.90
23475;DHT22;11910;52.086;21.066;2024-02-23T10:48:58;10.40;99.90
23475;DHT22;11910;52.086;21.066;2024-02-23T10:51:27;10.40;99.90
23475;DHT22;11910;52.086;21.066;2024-02-23T10:53:53;10.40;99.90
23475;DHT22;11910;52.086;21.066;2024-02-23T10:56:20;10.40;99.90
23475;DHT22;11910;52.086;21.066;2024-02-23T10:58:48;10.40;99.90
23475;DHT22;11910;52.086;21.066;2024-02-23T11:01:14;10.40;99.90
23475;DHT22;11910;52.086;21.066;2024-02-23T11:03:42;10.40;99.90
23475;DHT22;11910;52.086;21.066;2024-02-23T11:06:12;10.40;99.90
23475;DHT22;11910;52.086;21.066;2024-02-23T11:08:37;10.40;99.90
23475;DHT22;11910;52.086;21.066;2024-02-23T11:11:11;10.40;99.90
23475;DHT22;11910;52.086;21.066;2024-02-23T11:13:38;10.40;99.90
23475;DHT22;11910;52.086;21.066;2024-02-23T11:16:05;10.40;99.90
23475;DHT22;11910;52.086;21.066;2024-02-23T11:18:31;10.40;99.90
23475;DHT22;11910;52.086;21.066;2024-02-23T11:21:01;10.50;99.90
23475;DHT22;11910;52.086;21.066;2024-02-23T11:23:41;10.50;99.90
23475;DHT22;11910;52.086;21.066;2024-02-23T11:26:10;10.50;99.90
23475;DHT22;11910;52.086;21.066;2024-02-23T11:29:11;10.60;99.90
23475;DHT22;11910;52.086;21.066;2024-02-23T11:31:44;10.50;99.90
23475;DHT22;11910;52.086;21.066;2024-02-23T11:34:11;10.50;99.90
23475;DHT22;11910;52.086;21.066;2024-02-23T11:36:38;10.50;99.90
23475;DHT22;11910;52.086;21.066;2024-02-23T11:39:04;10.50;99.90
23475;DHT22;11910;52.086;21.066;2024-02-23T11:41:31;10.50;99.90
23475;DHT22;11910;52.086;21.066;2024-02-23T11:43:57;10.60;99.90
23475;DHT22;11910;52.086;21.066;2024-02-23T11:46:25;10.60;99.90
23475;DHT22;11910;52.086;21.066;2024-02-23T11:48:51;10.60;99.90
23475;DHT22;11910;52.086;21.066;2024-02-23T11:51:21;10.70;99.90
23475;DHT22;11910;52.086;21.066;2024-02-23T11:53:47;10.70;99.90
23475;DHT22;11910;52.086;21.066;2024-02-23T11:56:13;10.80;99.90
23475;DHT22;11910;52.086;21.066;2024-02-23T11:58:40;10.80;99.90
23475;DHT22;11910;52.086;21.066;2024-02-23T12:01:06;10.80;99.90
23475;DHT22;11910;52.086;21.066;2024-02-23T12:03:33;10.80;99.90
23475;DHT22;11910;52.086;21.066;2024-02-23T12:06:00;10.80;99.90
23475;DHT22;11910;52.086;21.066;2024-02-23T12:08:27;10.70;99.90
23475;DHT22;11910;52.086;21.066;2024-02-23T12:10:56;10.80;99.90
23475;DHT22;11910;52.086;21.066;2024-02-23T12:13:22;10.70;99.90
23475;DHT22;11910;52.086;21.066;2024-02-23T12:15:51;10.60;99.90
23475;DHT22;11910;52.086;21.066;2024-02-23T12:18:18;10.60;99.90
23475;DHT22;11910;52.086;21.066;2024-02-23T12:20:47;10.60;99.90
23475;DHT22;11910;52.086;21.066;2024-02-23T12:23:13;10.60;99.90
23475;DHT22;11910;52.086;21.066;2024-02-23T12:25:39;10.70;99.90
23475;DHT22;11910;52.086;21.066;2024-02-23T12:28:05;10.80;99.90
23475;DHT22;11910;52.086;21.066;2024-02-23T12:30:31;10.80;99.90
23475;DHT22;11910;52.086;21.066;2024-02-23T12:33:05;10.90;99.90
23475;DHT22;11910;52.086;21.066;2024-02-23T12:35:33;10.90;99.90
23475;DHT22;11910;52.086;21.066;2024-02-23T12:37:59;10.90;99.90
23475;DHT22;11910;52.086;21.066;2024-02-23T12:40:25;10.90;99.90
23475;DHT22;11910;52.086;21.066;2024-02-23T12:42:51;11.00;99.90
23475;DHT22;11910;52.086;21.066;2024-02-23T12:45:16;11.00;99.90
23475;DHT22;11910;52.086;21.066;2024-02-23T12:47:42;10.90;99.90
23475;DHT22;11910;52.086;21.066;2024-02-23T12:50:08;11.00;99.90
23475;DHT22;11910;52.086;21.066;2024-02-23T12:52:34;11.00;99.90
23475;DHT22;11910;52.086;21.066;2024-02-23T12:55:00;11.00;99.90
23475;DHT22;11910;52.086;21.066;2024-02-23T12:57:25;11.00;99.90
23475;DHT22;11910;52.086;21.066;2024-02-23T12:59:51;11.00;99.90
23475;DHT22;11910;52.086;21.066;2024-02-23T13:02:17;11.00;99.90
23475;DHT22;11910;52.086;21.066;2024-02-23T13:04:42;11.00;99.90
23475;DHT22;11910;52.086;21.066;2024-02-23T13:07:14;11.00;99.90
23475;DHT22;11910;52.086;21.066;2024-02-23T13:09:40;11.00;99.90
23475;DHT22;11910;52.086;21.066;2024-02-23T13:12:06;11.00;99.90
23475;DHT22;11910;52.086;21.066;2024-02-23T13:14:32;11.00;99.90
23475;DHT22;11910;52.086;21.066;2024-02-23T13:16:58;11.00;99.90
23475;DHT22;11910;52.086;21.066;2024-02-23T13:19:24;11.00;99.90
23475;DHT22;11910;52.086;21.066;2024-02-23T13:21:49;11.00;99.90
23475;DHT22;11910;52.086;21.066;2024-02-23T13:24:15;11.00;99.90
23475;DHT22;11910;52.086;21.066;2024-02-23T13:26:41;11.00;99.90
23475;DHT22;11910;52.086;21.066;2024-02-23T13:29:07;11.00;99.90
23475;DHT22;11910;52.086;21.066;2024-02-23T13:31:33;11.00;99.90
23475;DHT22;11910;52.086;21.066;2024-02-23T13:33:58;11.00;99.90
23475;DHT22;11910;52.086;21.066;2024-02-23T13:36:24;11.00;99.90
23475;DHT22;11910;52.086;21.066;2024-02-23T13:38:50;11.00;99.90
23475;DHT22;11910;52.086;21.066;2024-02-23T13:41:17;11.00;99.90
23475;DHT22;11910;52.086;21.066;2024-02-23T13:43:43;11.00;99.90
23475;DHT22;11910;52.086;21.066;2024-02-23T13:46:09;11.00;99.90
23475;DHT22;11910;52.086;21.066;2024-02-23T13:48:36;11.00;99.90
23475;DHT22;11910;52.086;21.066;2024-02-23T13:51:01;11.00;99.90
23475;DHT22;11910;52.086;21.066;2024-02-23T13:53:30;11.00;99.90
23475;DHT22;11910;52.086;21.066;2024-02-23T13:55:56;10.90;99.90
23475;DHT22;11910;52.086;21.066;2024-02-23T13:58:22;10.90;99.90
23475;DHT22;11910;52.086;21.066;2024-02-23T14:00:48;10.90;99.90
23475;DHT22;11910;52.086;21.066;2024-02-23T14:03:16;10.90;99.90
23475;DHT22;11910;52.086;21.066;2024-02-23T14:05:46;10.90;99.90
23475;DHT22;11910;52.086;21.066;2024-02-23T14:08:12;10.80;99.90
23475;DHT22;11910;52.086;21.066;2024-02-23T14:10:38;10.70;99.90
23475;DHT22;11910;52.086;21.066;2024-02-23T14:13:05;10.70;99.90
23475;DHT22;11910;52.086;21.066;2024-02-23T14:15:32;10.60;99.90
23475;DHT22;11910;52.086;21.066;2024-02-23T14:17:58;10.60;99.90
23475;DHT22;11910;52.086;21.066;2024-02-23T14:20:24;10.70;99.90
23475;DHT22;11910;52.086;21.066;2024-02-23T14:22:49;10.70;99.90
23475;DHT22;11910;52.086;21.066;2024-02-23T14:25:16;10.70;99.90
23475;DHT22;11910;52.086;21.066;2024-02-23T14:27:41;10.70;99.90
23475;DHT22;11910;52.086;21.066;2024-02-23T14:30:08;10.70;99.90
23475;DHT22;11910;52.086;21.066;2024-02-23T14:32:34;10.60;99.90
23475;DHT22;11910;52.086;21.066;2024-02-23T14:35:02;10.60;99.90
23475;DHT22;11910;52.086;21.066;2024-02-23T14:37:29;10.60;99.90
23475;DHT22;11910;52.086;21.066;2024-02-23T14:39:54;10.60;99.90
23475;DHT22;11910;52.086;21.066;2024-02-23T14:42:20;10.50;99.90
23475;DHT22;11910;52.086;21.066;2024-02-23T14:44:46;10.50;99.90
23475;DHT22;11910;52.086;21.066;2024-02-23T14:47:12;10.50;99.90
23475;DHT22;11910;52.086;21.066;2024-02-23T14:49:38;10.50;99.90
23475;DHT22;11910;52.086;21.066;2024-02-23T14:52:04;10.50;99.90
23475;DHT22;11910;52.086;21.066;2024-02-23T14:54:30;10.50;99.90
23475;DHT22;11910;52.086;21.066;2024-02-23T14:56:56;10.40;99.90
23475;DHT22;11910;52.086;21.066;2024-02-23T14:59:25;10.50;99.90
23475;DHT22;11910;52.086;21.066;2024-02-23T15:01:50;10.50;99.90
23475;DHT22;11910;52.086;21.066;2024-02-23T15:04:16;10.50;99.90
23475;DHT22;11910;52.086;21.066;2024-02-23T15:06:42;10.50;99.90
23475;DHT22;11910;52.086;21.066;2024-02-23T15:09:07;10.50;99.90
23475;DHT22;11910;52.086;21.066;2024-02-23T15:11:33;10.50;99.90
23475;DHT22;11910;52.086;21.066;2024-02-23T15:14:01;10.50;99.90
23475;DHT22;11910;52.086;21.066;2024-02-23T15:16:28;10.50;99.90
23475;DHT22;11910;52.086;21.066;2024-02-23T15:18:53;10.50;99.90
23475;DHT22;11910;52.086;21.066;2024-02-23T15:21:19;10.50;99.90
23475;DHT22;11910;52.086;21.066;2024-02-23T15:23:45;10.50;99.90
23475;DHT22;11910;52.086;21.066;2024-02-23T15:26:11;10.50;99.90
23475;DHT22;11910;52.086;21.066;2024-02-23T15:28:37;10.50;99.90
23475;DHT22;11910;52.086;21.066;2024-02-23T15:31:04;10.50;99.90
23475;DHT22;11910;52.086;21.066;2024-02-23T15:33:30;10.50;99.90